Time;durP1;ratioP1;P1;durP2;ratioP2;P2;SDS_P1;SDS_P2;PMS_P1;PMS_P2;Temp;Humidity;BMP_temperature;BMP_pressure;BME280_temperature;BME280_humidity;BME280_pressure;Samples;Min_cycle;Max_cycle;Signal;HPM_P1;HPM_P2
2022/08/26 00:02:21;;;;;;;28.52;14.82;;;;;;;;;;5034646;28;20025;-78
2022/08/26 00:04:48;;;;;;;25.40;14.82;;;;;;;;;;5032032;28;20033;-76
2022/08/26 00:07:14;;;;;;;27.88;13.80;;;;;;;;;;5032388;28;20025;-76
2022/08/26 00:09:40;;;;;;;27.50;14.20;;;;;;;;;;5032123;28;20091;-77
2022/08/26 00:12:07;;;;;;;32.10;14.38;;;;;;;;;;5031436;28;20147;-78
2022/08/26 00:14:33;;;;;;;27.33;13.48;;;;;;;;;;5029787;28;20029;-75
2022/08/26 00:16:59;;;;;;;23.55;12.55;;;;;;;;;;5023989;28;20064;-76
2022/08/26 00:19:25;;;;;;;22.60;12.88;;;;;;;;;;5031163;28;20481;-76
2022/08/26 00:21:51;;;;;;;25.17;12.25;;;;;;;;;;5023120;28;20123;-78
2022/08/26 00:24:19;;;;;;;21.80;11.77;;;;;;;;;;5048103;28;20125;-77
2022/08/26 00:26:46;;;;;;;23.17;12.00;;;;;;;;;;5026190;28;20065;-76
2022/08/26 00:29:12;;;;;;;23.83;10.82;;;;;;;;;;5038518;28;20483;-78
2022/08/26 00:31:38;;;;;;;26.80;11.35;;;;;;;;;;5033052;28;20495;-76
2022/08/26 00:34:04;;;;;;;21.85;10.85;;;;;;;;;;5029593;28;20396;-76
2022/08/26 00:36:30;;;;;;;23.08;10.60;;;;;;;;;;5036643;28;20044;-76
2022/08/26 00:38:57;;;;;;;21.10;10.02;;;;;;;;;;5032003;28;20449;-77
2022/08/26 00:41:23;;;;;;;22.02;9.98;;;;;;;;;;5029250;28;20025;-75
2022/08/26 00:43:50;;;;;;;22.98;11.10;;;;;;;;;;5040034;28;20021;-78
2022/08/26 00:46:19;;;;;;;22.60;10.02;;;;;;;;;;5030238;28;20130;-75
2022/08/26 00:48:46;;;;;;;19.42;8.90;;;;;;;;;;5031414;28;20047;-77
2022/08/26 00:51:17;;;;;;;19.13;9.07;;;;;;;;;;5031369;28;20038;-76
2022/08/26 00:54:13;;;;;;;17.63;8.68;;;;;;;;;;5030038;28;20079;-75
2022/08/26 00:56:57;;;;;;;19.52;8.15;;;;;;;;;;5018875;28;20048;-75
2022/08/26 00:59:24;;;;;;;17.58;8.40;;;;;;;;;;5037033;28;20034;-78
2022/08/26 01:01:50;;;;;;;17.45;8.15;;;;;;;;;;5035487;28;20117;-77
2022/08/26 01:04:18;;;;;;;14.95;8.57;;;;;;;;;;5033781;28;20848;-78
2022/08/26 01:06:45;;;;;;;18.25;8.30;;;;;;;;;;5034387;28;20026;-75
2022/08/26 01:09:12;;;;;;;13.77;8.00;;;;;;;;;;5030057;28;20529;-78
2022/08/26 01:11:38;;;;;;;21.63;8.05;;;;;;;;;;5038150;28;20094;-77
2022/08/26 01:14:05;;;;;;;13.00;6.47;;;;;;;;;;5034610;28;20029;-78
2022/08/26 01:16:32;;;;;;;12.77;6.75;;;;;;;;;;5031747;28;20111;-73
2022/08/26 01:19:02;;;;;;;20.08;9.25;;;;;;;;;;5026404;28;20045;-77
2022/08/26 01:21:30;;;;;;;18.25;6.35;;;;;;;;;;5035676;28;20032;-78
2022/08/26 01:23:57;;;;;;;16.20;6.28;;;;;;;;;;5023094;28;20104;-77
2022/08/26 01:26:25;;;;;;;19.83;7.05;;;;;;;;;;5020768;28;20026;-76
2022/08/26 01:28:54;;;;;;;17.23;7.32;;;;;;;;;;5032359;28;20084;-76
2022/08/26 01:31:23;;;;;;;18.27;6.60;;;;;;;;;;5028922;28;20025;-76
2022/08/26 01:33:55;;;;;;;18.88;6.68;;;;;;;;;;5045595;28;20033;-76
2022/08/26 01:36:22;;;;;;;16.23;5.88;;;;;;;;;;5030233;28;20026;-77
2022/08/26 01:38:48;;;;;;;15.32;6.47;;;;;;;;;;5033425;28;20025;-77
2022/08/26 01:41:15;;;;;;;17.75;6.65;;;;;;;;;;5016023;28;20022;-78
2022/08/26 01:43:43;;;;;;;18.50;6.78;;;;;;;;;;5029604;28;20033;-73
2022/08/26 01:46:10;;;;;;;18.95;6.72;;;;;;;;;;5041792;28;20041;-78
2022/08/26 01:48:37;;;;;;;16.00;6.47;;;;;;;;;;5035412;28;20029;-74
2022/08/26 01:51:05;;;;;;;20.05;6.88;;;;;;;;;;5032200;28;20033;-77
2022/08/26 01:53:31;;;;;;;12.88;6.00;;;;;;;;;;5030830;28;20053;-75
2022/08/26 01:55:59;;;;;;;12.05;5.78;;;;;;;;;;5032140;28;20036;-75
2022/08/26 01:58:39;;;;;;;20.23;7.28;;;;;;;;;;5033188;28;20119;-78
2022/08/26 02:01:06;;;;;;;22.13;8.23;;;;;;;;;;5032902;28;20502;-75
2022/08/26 02:03:33;;;;;;;18.17;6.13;;;;;;;;;;5017104;28;20486;-77
2022/08/26 02:06:02;;;;;;;16.88;4.93;;;;;;;;;;5033486;28;20112;-76
2022/08/26 02:08:34;;;;;;;14.75;4.82;;;;;;;;;;5022495;28;20037;-74
2022/08/26 02:11:00;;;;;;;19.65;4.47;;;;;;;;;;5031193;28;20056;-75
2022/08/26 02:13:28;;;;;;;14.07;4.20;;;;;;;;;;5026236;28;20041;-75
2022/08/26 02:15:55;;;;;;;19.38;4.82;;;;;;;;;;5019232;28;20029;-79
2022/08/26 02:18:21;;;;;;;23.40;13.85;;;;;;;;;;5030216;28;20036;-78
2022/08/26 02:20:47;;;;;;;19.17;5.68;;;;;;;;;;5029428;28;20112;-79
2022/08/26 02:23:14;;;;;;;19.45;6.07;;;;;;;;;;5033455;28;20029;-76
2022/08/26 02:25:44;;;;;;;9.18;3.47;;;;;;;;;;5034280;28;20563;-77
2022/08/26 02:28:11;;;;;;;13.63;4.03;;;;;;;;;;5031607;28;20025;-78
2022/08/26 02:30:38;;;;;;;24.13;4.28;;;;;;;;;;5031915;28;20030;-78
2022/08/26 02:33:04;;;;;;;11.85;3.75;;;;;;;;;;5032152;28;20540;-76
2022/08/26 02:35:31;;;;;;;12.32;3.33;;;;;;;;;;5030051;28;20045;-77
2022/08/26 02:37:57;;;;;;;12.63;3.53;;;;;;;;;;5029133;28;20040;-77
2022/08/26 02:40:25;;;;;;;13.43;3.58;;;;;;;;;;5024634;28;20549;-77
2022/08/26 02:42:51;;;;;;;13.20;3.13;;;;;;;;;;5025174;28;20037;-77
2022/08/26 02:45:18;;;;;;;14.75;3.53;;;;;;;;;;5014984;28;20088;-77
2022/08/26 02:47:44;;;;;;;6.63;2.90;;;;;;;;;;5028791;28;20040;-77
2022/08/26 02:50:10;;;;;;;10.63;2.88;;;;;;;;;;5024790;28;20116;-77
2022/08/26 02:52:36;;;;;;;14.07;3.15;;;;;;;;;;5026053;28;20048;-78
2022/08/26 02:55:03;;;;;;;9.07;3.17;;;;;;;;;;5031572;28;20532;-77
2022/08/26 02:57:29;;;;;;;9.43;2.90;;;;;;;;;;5018021;28;20033;-76
2022/08/26 02:59:56;;;;;;;10.82;2.53;;;;;;;;;;5031450;28;20164;-77
2022/08/26 03:02:22;;;;;;;13.68;2.38;;;;;;;;;;5030198;28;20061;-77
2022/08/26 03:04:49;;;;;;;6.90;1.88;;;;;;;;;;5026497;28;20057;-78
2022/08/26 03:07:15;;;;;;;8.55;2.08;;;;;;;;;;5031156;28;20055;-77
2022/08/26 03:09:42;;;;;;;10.40;2.53;;;;;;;;;;5030778;28;20056;-77
2022/08/26 03:12:08;;;;;;;11.27;2.33;;;;;;;;;;5024965;28;20042;-77
2022/08/26 03:14:34;;;;;;;15.93;2.67;;;;;;;;;;5040595;28;20063;-76
2022/08/26 03:17:00;;;;;;;14.60;2.30;;;;;;;;;;5034286;28;20500;-75
2022/08/26 03:19:26;;;;;;;11.52;2.22;;;;;;;;;;5018905;28;20474;-78
2022/08/26 03:21:53;;;;;;;10.35;2.20;;;;;;;;;;5028610;28;20033;-77
2022/08/26 03:24:19;;;;;;;9.85;2.08;;;;;;;;;;5030324;28;20052;-77
2022/08/26 03:26:45;;;;;;;9.73;2.30;;;;;;;;;;5040022;28;20032;-77
2022/08/26 03:31:56;;;;;;;13.95;1.83;;;;;;;;;;5024239;28;20120;-74
2022/08/26 03:34:22;;;;;;;18.35;2.78;;;;;;;;;;5025182;28;20026;-77
2022/08/26 03:36:49;;;;;;;11.55;2.08;;;;;;;;;;5027062;28;20635;-76
2022/08/26 03:39:16;;;;;;;11.75;2.17;;;;;;;;;;5023379;28;20473;-77
2022/08/26 03:41:43;;;;;;;10.05;2.05;;;;;;;;;;5012738;28;20087;-76
2022/08/26 03:44:10;;;;;;;14.10;2.47;;;;;;;;;;5031771;28;20038;-76
2022/08/26 03:46:37;;;;;;;10.07;1.83;;;;;;;;;;5030177;28;20034;-76
2022/08/26 03:49:04;;;;;;;12.35;1.92;;;;;;;;;;5028136;28;20079;-77
2022/08/26 03:51:31;;;;;;;12.73;2.60;;;;;;;;;;5031403;28;20026;-76
2022/08/26 03:53:59;;;;;;;13.82;1.85;;;;;;;;;;5031877;28;20542;-80
2022/08/26 03:56:25;;;;;;;11.93;1.90;;;;;;;;;;5031505;28;20076;-76
2022/08/26 03:58:52;;;;;;;14.57;2.47;;;;;;;;;;5025975;28;20034;-77
2022/08/26 04:01:18;;;;;;;14.70;2.72;;;;;;;;;;5041224;28;20033;-77
2022/08/26 04:03:57;;;;;;;13.63;2.08;;;;;;;;;;5032662;28;20013;-77
2022/08/26 04:06:23;;;;;;;12.48;2.22;;;;;;;;;;5021750;28;20136;-77
2022/08/26 04:08:49;;;;;;;16.02;2.83;;;;;;;;;;5034575;28;20033;-75
2022/08/26 04:11:19;;;;;;;18.23;3.50;;;;;;;;;;5026900;28;20087;-76
2022/08/26 04:13:46;;;;;;;13.43;2.67;;;;;;;;;;5026023;28;20041;-77
2022/08/26 04:16:12;;;;;;;17.88;3.00;;;;;;;;;;5025671;28;20029;-76
2022/08/26 04:18:39;;;;;;;12.43;2.33;;;;;;;;;;5041328;28;20041;-75
2022/08/26 04:21:05;;;;;;;20.10;2.95;;;;;;;;;;5025133;28;20038;-78
2022/08/26 04:23:31;;;;;;;16.23;2.65;;;;;;;;;;5026974;28;20025;-77
2022/08/26 04:25:57;;;;;;;16.77;3.88;;;;;;;;;;5025052;28;20063;-77
2022/08/26 04:28:23;;;;;;;14.75;3.38;;;;;;;;;;5029614;28;20481;-78
2022/08/26 04:30:49;;;;;;;16.35;3.05;;;;;;;;;;5051985;28;20389;-77
2022/08/26 04:33:16;;;;;;;15.65;3.10;;;;;;;;;;5025054;28;20134;-77
2022/08/26 04:35:42;;;;;;;15.95;2.78;;;;;;;;;;5028752;28;20436;-78
2022/08/26 04:38:09;;;;;;;12.77;2.55;;;;;;;;;;5022717;28;20863;-78
2022/08/26 04:40:35;;;;;;;14.50;2.50;;;;;;;;;;5033325;28;20036;-75
2022/08/26 04:43:01;;;;;;;17.58;3.38;;;;;;;;;;5032042;28;20111;-77
2022/08/26 04:45:27;;;;;;;9.48;1.80;;;;;;;;;;5037665;28;20013;-76
2022/08/26 04:47:56;;;;;;;13.00;2.33;;;;;;;;;;5026352;28;20488;-78
2022/08/26 04:50:24;;;;;;;12.50;3.75;;;;;;;;;;5028186;28;20041;-78
2022/08/26 04:52:50;;;;;;;13.65;2.65;;;;;;;;;;5034508;28;20480;-75
2022/08/26 04:55:16;;;;;;;13.20;2.25;;;;;;;;;;5033051;28;20036;-78
2022/08/26 04:57:42;;;;;;;13.35;2.63;;;;;;;;;;5033787;28;20064;-78
2022/08/26 05:00:11;;;;;;;13.32;2.97;;;;;;;;;;5033670;28;20088;-79
2022/08/26 05:02:37;;;;;;;17.58;2.60;;;;;;;;;;5032828;28;20037;-78
2022/08/26 05:05:05;;;;;;;14.73;2.13;;;;;;;;;;5032675;28;20443;-77
2022/08/26 05:07:31;;;;;;;14.10;2.40;;;;;;;;;;5032682;28;20036;-79
2022/08/26 05:09:57;;;;;;;21.13;2.95;;;;;;;;;;5033960;28;20045;-77
2022/08/26 05:12:24;;;;;;;13.60;2.13;;;;;;;;;;5032646;28;20016;-77
2022/08/26 05:14:50;;;;;;;16.13;2.50;;;;;;;;;;5025424;28;20034;-76
2022/08/26 05:17:16;;;;;;;14.32;2.35;;;;;;;;;;5030626;28;20040;-76
2022/08/26 05:19:42;;;;;;;11.95;1.92;;;;;;;;;;5032290;28;20045;-74
2022/08/26 05:22:08;;;;;;;11.93;2.03;;;;;;;;;;5018483;28;20034;-72
2022/08/26 05:24:35;;;;;;;11.45;2.40;;;;;;;;;;5030081;28;20055;-74
2022/08/26 05:27:01;;;;;;;11.43;2.25;;;;;;;;;;5013610;28;20187;-78
2022/08/26 05:29:28;;;;;;;15.70;2.80;;;;;;;;;;5026678;28;20053;-74
2022/08/26 05:31:54;;;;;;;15.70;3.60;;;;;;;;;;5020859;28;20117;-74
2022/08/26 05:34:20;;;;;;;12.02;2.47;;;;;;;;;;5028402;28;20091;-71
2022/08/26 05:36:46;;;;;;;10.30;2.00;;;;;;;;;;5029890;28;20397;-73
2022/08/26 05:39:12;;;;;;;9.73;1.92;;;;;;;;;;5027276;28;20064;-75
2022/08/26 05:41:39;;;;;;;9.57;2.10;;;;;;;;;;5030458;28;20056;-75
2022/08/26 05:44:08;;;;;;;14.80;2.00;;;;;;;;;;5029884;28;20470;-75
2022/08/26 05:46:35;;;;;;;16.30;2.72;;;;;;;;;;5027291;28;20073;-75
2022/08/26 05:49:01;;;;;;;10.23;1.40;;;;;;;;;;5025733;28;20026;-76
2022/08/26 05:51:27;;;;;;;13.75;1.75;;;;;;;;;;5022980;28;20038;-75
2022/08/26 05:53:54;;;;;;;8.68;1.80;;;;;;;;;;5032871;28;20040;-74
2022/08/26 05:56:26;;;;;;;10.07;1.98;;;;;;;;;;5031083;28;20037;-75
2022/08/26 05:58:54;;;;;;;10.13;1.90;;;;;;;;;;5024776;28;20338;-75
2022/08/26 06:01:24;;;;;;;9.38;2.92;;;;;;;;;;5024544;28;20026;-74
2022/08/26 06:03:52;;;;;;;12.25;2.65;;;;;;;;;;5022729;28;20061;-74
2022/08/26 06:06:19;;;;;;;9.88;2.40;;;;;;;;;;5029363;28;20037;-74
2022/08/26 06:08:46;;;;;;;11.15;2.38;;;;;;;;;;5026245;28;20079;-75
2022/08/26 06:11:14;;;;;;;12.60;1.77;;;;;;;;;;5018468;28;20530;-75
2022/08/26 06:13:40;;;;;;;12.95;1.80;;;;;;;;;;5025562;28;20053;-76
2022/08/26 06:16:09;;;;;;;13.18;1.55;;;;;;;;;;5024028;28;20025;-76
2022/08/26 06:18:37;;;;;;;6.60;1.60;;;;;;;;;;5028615;28;20034;-75
2022/08/26 06:21:22;;;;;;;11.55;1.75;;;;;;;;;;5025844;28;20152;-75
2022/08/26 06:26:35;;;;;;;9.90;1.55;;;;;;;;;;5026278;28;20044;-74
2022/08/26 06:29:01;;;;;;;14.15;1.88;;;;;;;;;;5024446;28;20119;-75
2022/08/26 06:31:28;;;;;;;9.15;1.73;;;;;;;;;;5030233;28;20071;-76
2022/08/26 06:33:54;;;;;;;12.45;2.28;;;;;;;;;;5030970;28;20033;-76
2022/08/26 06:36:22;;;;;;;9.23;1.75;;;;;;;;;;5025947;28;20029;-76
2022/08/26 06:38:49;;;;;;;14.02;2.42;;;;;;;;;;5029367;28;20120;-75
2022/08/26 06:41:17;;;;;;;33.15;11.30;;;;;;;;;;5026123;28;20465;-75
2022/08/26 06:43:43;;;;;;;12.00;2.70;;;;;;;;;;5030528;28;20030;-74
2022/08/26 06:46:11;;;;;;;14.10;2.33;;;;;;;;;;5029137;28;20041;-75
2022/08/26 06:48:38;;;;;;;12.93;1.85;;;;;;;;;;5020158;28;20045;-76
2022/08/26 06:51:04;;;;;;;15.50;2.88;;;;;;;;;;5036672;28;20033;-76
2022/08/26 06:53:30;;;;;;;16.40;2.35;;;;;;;;;;5029972;28;20148;-76
2022/08/26 06:55:56;;;;;;;14.85;1.98;;;;;;;;;;5030575;28;20036;-75
2022/08/26 06:58:22;;;;;;;10.38;1.70;;;;;;;;;;5029710;28;20530;-76
2022/08/26 07:00:48;;;;;;;12.13;1.60;;;;;;;;;;5028641;28;20477;-76
2022/08/26 07:03:14;;;;;;;8.27;1.73;;;;;;;;;;5037382;28;20032;-76
2022/08/26 07:05:40;;;;;;;10.73;2.20;;;;;;;;;;5029981;28;20038;-77
2022/08/26 07:08:06;;;;;;;10.20;1.50;;;;;;;;;;5019516;28;20030;-77
2022/08/26 07:10:32;;;;;;;7.65;1.50;;;;;;;;;;5019142;28;20038;-77
2022/08/26 07:12:59;;;;;;;10.32;1.40;;;;;;;;;;5018359;28;20044;-78
2022/08/26 07:15:25;;;;;;;24.42;11.93;;;;;;;;;;5018611;28;20366;-73
2022/08/26 07:17:51;;;;;;;11.65;2.08;;;;;;;;;;5016785;28;20041;-74
2022/08/26 07:20:17;;;;;;;14.05;1.95;;;;;;;;;;5018546;28;20033;-77
2022/08/26 07:22:43;;;;;;;8.30;1.27;;;;;;;;;;5016798;28;20033;-76
2022/08/26 07:25:10;;;;;;;9.07;1.80;;;;;;;;;;5015715;28;20034;-75
2022/08/26 07:27:37;;;;;;;10.73;2.05;;;;;;;;;;5017795;28;20038;-74
2022/08/26 07:30:04;;;;;;;10.15;2.05;;;;;;;;;;5012330;28;20045;-74
2022/08/26 07:32:31;;;;;;;8.82;1.40;;;;;;;;;;5016352;28;20619;-74
2022/08/26 07:34:57;;;;;;;8.82;1.40;;;;;;;;;;5019368;28;20389;-74
2022/08/26 07:37:23;;;;;;;11.50;1.70;;;;;;;;;;5016197;28;20026;-74
2022/08/26 07:39:49;;;;;;;7.93;1.10;;;;;;;;;;5015374;28;20477;-77
2022/08/26 07:42:16;;;;;;;9.70;1.45;;;;;;;;;;5012907;28;20605;-79
2022/08/26 07:44:42;;;;;;;5.80;1.27;;;;;;;;;;5014254;28;20127;-75
2022/08/26 07:47:09;;;;;;;15.75;3.05;;;;;;;;;;5012798;28;20030;-74
2022/08/26 07:49:35;;;;;;;9.43;2.45;;;;;;;;;;5019092;28;20139;-75
2022/08/26 07:52:01;;;;;;;8.82;1.92;;;;;;;;;;5027449;28;20073;-74
2022/08/26 07:54:28;;;;;;;6.32;1.10;;;;;;;;;;5022454;28;20025;-74
2022/08/26 07:56:54;;;;;;;6.75;1.27;;;;;;;;;;5028359;28;20029;-74
2022/08/26 07:59:22;;;;;;;8.13;1.45;;;;;;;;;;5029109;28;20037;-73
2022/08/26 08:01:48;;;;;;;14.45;1.90;;;;;;;;;;5022889;28;20124;-73
2022/08/26 08:04:16;;;;;;;8.25;0.95;;;;;;;;;;5031303;28;20038;-74
2022/08/26 08:06:42;;;;;;;9.70;1.70;;;;;;;;;;5030079;28;20041;-74
2022/08/26 08:09:08;;;;;;;4.75;1.13;;;;;;;;;;5032366;28;20033;-75
2022/08/26 08:11:34;;;;;;;9.85;1.20;;;;;;;;;;5031532;28;20073;-74
2022/08/26 08:14:00;;;;;;;8.48;1.23;;;;;;;;;;5023853;28;20308;-74
2022/08/26 08:16:27;;;;;;;9.10;1.38;;;;;;;;;;5021703;28;20037;-74
2022/08/26 08:18:53;;;;;;;10.57;1.65;;;;;;;;;;5019327;28;20491;-74
2022/08/26 08:21:20;;;;;;;20.55;9.45;;;;;;;;;;5023511;28;20461;-72
2022/08/26 08:23:46;;;;;;;9.73;1.42;;;;;;;;;;5023309;28;20025;-74
2022/08/26 08:26:12;;;;;;;6.57;1.13;;;;;;;;;;5011413;28;20040;-74
2022/08/26 08:28:38;;;;;;;9.45;1.35;;;;;;;;;;5020691;28;20062;-74
2022/08/26 08:31:05;;;;;;;10.48;1.17;;;;;;;;;;4988428;28;21759;-75
2022/08/26 08:33:32;;;;;;;14.23;1.25;;;;;;;;;;5026047;28;20026;-74
2022/08/26 08:35:58;;;;;;;10.95;1.50;;;;;;;;;;5019805;28;20018;-74
2022/08/26 08:38:25;;;;;;;6.18;1.13;;;;;;;;;;4997654;28;20034;-74
2022/08/26 08:40:51;;;;;;;8.20;1.20;;;;;;;;;;4992777;28;20065;-74
2022/08/26 08:43:24;;;;;;;5.47;1.05;;;;;;;;;;5019635;28;20021;-74
2022/08/26 08:45:52;;;;;;;8.23;1.52;;;;;;;;;;5017829;28;20068;-74
2022/08/26 08:48:24;;;;;;;8.10;1.23;;;;;;;;;;4997839;28;20580;-73
2022/08/26 08:50:52;;;;;;;9.30;1.17;;;;;;;;;;5025671;28;20571;-74
2022/08/26 08:53:36;;;;;;;7.95;1.42;;;;;;;;;;5003253;28;20060;-74
2022/08/26 08:56:02;;;;;;;5.53;0.93;;;;;;;;;;5005035;28;20033;-74
2022/08/26 08:58:49;;;;;;;11.25;1.42;;;;;;;;;;5019704;28;20033;-73
2022/08/26 09:01:27;;;;;;;10.55;1.77;;;;;;;;;;4987664;28;20037;-73
2022/08/26 09:04:01;;;;;;;8.32;2.83;;;;;;;;;;5004030;28;20025;-74
2022/08/26 09:06:28;;;;;;;9.60;1.48;;;;;;;;;;5014046;28;20033;-74
2022/08/26 09:08:55;;;;;;;5.43;0.98;;;;;;;;;;5016900;28;20030;-74
2022/08/26 09:11:21;;;;;;;13.02;1.20;;;;;;;;;;5022138;28;20044;-74
2022/08/26 09:13:49;;;;;;;5.22;0.90;;;;;;;;;;5004295;28;20057;-75
2022/08/26 09:16:38;;;;;;;8.15;1.88;;;;;;;;;;5006992;28;20061;-74
2022/08/26 09:19:21;;;;;;;11.27;1.27;;;;;;;;;;5006612;28;20156;-77
2022/08/26 09:21:55;;;;;;;7.55;1.45;;;;;;;;;;5016841;28;20036;-77
2022/08/26 09:24:21;;;;;;;10.20;1.75;;;;;;;;;;5014007;28;20168;-74
2022/08/26 09:26:47;;;;;;;9.45;1.48;;;;;;;;;;5014246;28;20037;-75
2022/08/26 09:29:24;;;;;;;8.23;0.98;;;;;;;;;;5033213;28;20063;-75
2022/08/26 09:31:50;;;;;;;9.38;1.00;;;;;;;;;;5045749;28;20029;-74
2022/08/26 09:34:23;;;;;;;6.60;0.85;;;;;;;;;;5032939;28;20048;-74
2022/08/26 09:36:52;;;;;;;5.25;1.38;;;;;;;;;;5050456;28;20031;-74
2022/08/26 09:39:27;;;;;;;5.90;0.90;;;;;;;;;;5066236;28;20024;-73
2022/08/26 09:42:02;;;;;;;6.93;2.13;;;;;;;;;;5050897;28;20122;-74
2022/08/26 09:44:28;;;;;;;4.43;0.95;;;;;;;;;;5042258;28;20029;-74
2022/08/26 09:46:56;;;;;;;7.22;1.25;;;;;;;;;;5052320;28;20378;-73
2022/08/26 09:49:28;;;;;;;3.42;0.70;;;;;;;;;;5042301;28;20478;-73
2022/08/26 09:52:13;;;;;;;6.33;0.83;;;;;;;;;;5064546;28;20039;-74
2022/08/26 09:54:40;;;;;;;5.82;1.95;;;;;;;;;;5071924;28;20290;-74
2022/08/26 09:57:14;;;;;;;5.82;0.90;;;;;;;;;;5060793;28;20032;-74
2022/08/26 09:59:40;;;;;;;7.18;1.77;;;;;;;;;;5034734;28;20047;-74
2022/08/26 10:02:25;;;;;;;8.15;1.20;;;;;;;;;;5050881;28;20029;-74
2022/08/26 10:04:55;;;;;;;9.38;1.38;;;;;;;;;;5058827;28;20065;-74
2022/08/26 10:07:37;;;;;;;10.52;1.40;;;;;;;;;;5043515;28;20029;-73
2022/08/26 10:10:03;;;;;;;;;;;;;;;;;;5059543;28;20170;-74
2022/08/26 10:12:31;;;;;;;5.70;0.77;;;;;;;;;;5048927;28;19935;-74
2022/08/26 10:14:59;;;;;;;11.73;1.38;;;;;;;;;;5046824;28;20028;-73
2022/08/26 10:17:31;;;;;;;10.70;1.10;;;;;;;;;;5057868;28;20033;-73
2022/08/26 10:19:58;;;;;;;;;;;;;;;;;;5044241;28;20040;-74
2022/08/26 10:22:27;;;;;;;5.72;0.98;;;;;;;;;;5049844;28;19915;-73
2022/08/26 10:24:55;;;;;;;8.35;1.33;;;;;;;;;;5050135;28;20029;-73
2022/08/26 10:27:37;;;;;;;7.68;1.27;;;;;;;;;;5064664;28;20376;-74
2022/08/26 10:30:09;;;;;;;9.52;1.25;;;;;;;;;;5042673;28;20045;-77
2022/08/26 10:32:54;;;;;;;4.40;0.85;;;;;;;;;;5048136;28;20083;-75
2022/08/26 10:35:20;;;;;;;10.73;1.63;;;;;;;;;;5047229;28;20526;-75
2022/08/26 10:37:52;;;;;;;10.52;1.20;;;;;;;;;;5043012;28;20047;-73
2022/08/26 10:40:22;;;;;;;9.13;1.60;;;;;;;;;;5023044;28;20071;-75
2022/08/26 10:43:09;;;;;;;7.45;1.38;;;;;;;;;;5019623;28;20028;-75
2022/08/26 10:45:42;;;;;;;7.35;1.38;;;;;;;;;;5040737;28;20033;-77
2022/08/26 10:48:11;;;;;;;5.70;1.05;;;;;;;;;;5023082;28;20024;-73
2022/08/26 10:50:40;;;;;;;5.60;1.13;;;;;;;;;;5037098;28;20056;-74
2022/08/26 10:53:24;;;;;;;7.95;2.00;;;;;;;;;;5044943;28;20022;-75
2022/08/26 10:55:59;;;;;;;13.30;1.95;;;;;;;;;;5034853;28;20072;-74
2022/08/26 10:58:47;;;;;;;8.60;1.45;;;;;;;;;;5021811;28;20033;-78
2022/08/26 11:04:05;;;;;;;5.15;1.35;;;;;;;;;;5040249;28;20612;-80
2022/08/26 11:06:31;;;;;;;5.20;0.85;;;;;;;;;;5051931;28;20033;-75
2022/08/26 11:09:08;;;;;;;6.05;0.93;;;;;;;;;;5043190;28;20096;-78
2022/08/26 11:11:44;;;;;;;5.10;0.90;;;;;;;;;;5043374;28;20091;-77
2022/08/26 11:14:12;;;;;;;10.88;1.30;;;;;;;;;;5043540;28;20552;-78
2022/08/26 11:16:40;;;;;;;9.20;1.33;;;;;;;;;;5039183;28;20025;-72
2022/08/26 11:19:08;;;;;;;4.63;1.25;;;;;;;;;;5039592;28;20029;-75
2022/08/26 11:21:48;;;;;;;9.02;1.67;;;;;;;;;;5038215;28;20480;-74
2022/08/26 11:24:33;;;;;;;7.75;1.73;;;;;;;;;;5045159;28;20506;-75
2022/08/26 11:26:59;;;;;;;2.67;0.80;;;;;;;;;;5037456;28;20048;-77
2022/08/26 11:29:44;;;;;;;6.97;1.00;;;;;;;;;;5039407;28;20057;-80
2022/08/26 11:32:23;;;;;;;5.70;1.00;;;;;;;;;;5036239;28;20082;-77
2022/08/26 11:34:51;;;;;;;11.25;1.60;;;;;;;;;;5057140;28;20632;-78
2022/08/26 11:37:17;;;;;;;9.30;1.35;;;;;;;;;;5043947;28;20029;-76
2022/08/26 11:39:52;;;;;;;9.30;1.80;;;;;;;;;;5054828;28;20032;-77
2022/08/26 11:42:31;;;;;;;3.53;0.85;;;;;;;;;;5045560;28;20029;-76
2022/08/26 11:44:58;;;;;;;9.52;1.13;;;;;;;;;;5036364;28;20108;-80
2022/08/26 11:47:26;;;;;;;6.40;1.20;;;;;;;;;;5041879;28;20227;-77
2022/08/26 11:50:28;;;;;;;7.50;1.10;;;;;;;;;;5039334;28;20045;-76
2022/08/26 11:53:00;;;;;;;10.73;1.13;;;;;;;;;;4993643;28;20038;-79
2022/08/26 11:55:27;;;;;;;12.50;5.35;;;;;;;;;;5032394;28;20033;-77
2022/08/26 11:57:55;;;;;;;10.15;4.45;;;;;;;;;;5045046;28;20036;-77
2022/08/26 12:00:23;;;;;;;7.38;1.67;;;;;;;;;;5045557;28;20029;-76
2022/08/26 12:02:50;;;;;;;7.88;1.15;;;;;;;;;;5041596;28;20384;-81
2022/08/26 12:05:20;;;;;;;3.63;0.70;;;;;;;;;;5045174;28;20025;-81
2022/08/26 12:07:49;;;;;;;5.18;0.88;;;;;;;;;;5051153;28;20547;-78
2022/08/26 12:10:25;;;;;;;9.18;1.48;;;;;;;;;;5032414;28;20033;-78
2022/08/26 12:12:56;;;;;;;7.95;1.48;;;;;;;;;;5054152;28;20036;-78
2022/08/26 12:15:22;;;;;;;8.02;0.93;;;;;;;;;;5048113;28;20594;-77
2022/08/26 12:17:49;;;;;;;13.45;1.40;;;;;;;;;;5051034;28;20061;-78
2022/08/26 12:20:29;;;;;;;5.70;0.90;;;;;;;;;;5032478;28;20042;-77
2022/08/26 12:22:57;;;;;;;6.22;1.00;;;;;;;;;;5047216;28;20033;-77
2022/08/26 12:25:23;;;;;;;7.25;1.20;;;;;;;;;;5033727;28;20029;-77
2022/08/26 12:27:50;;;;;;;8.45;0.98;;;;;;;;;;5029255;28;20084;-77
2022/08/26 12:30:18;;;;;;;11.35;2.53;;;;;;;;;;5033947;28;20041;-77
2022/08/26 12:32:46;;;;;;;9.13;1.00;;;;;;;;;;5024027;28;20072;-77
2022/08/26 12:35:14;;;;;;;5.68;0.98;;;;;;;;;;5020734;28;20105;-77
2022/08/26 12:37:42;;;;;;;5.85;0.80;;;;;;;;;;5024859;28;20039;-77
2022/08/26 12:40:31;;;;;;;6.80;1.25;;;;;;;;;;5031033;28;20449;-77
2022/08/26 12:42:59;;;;;;;9.68;1.25;;;;;;;;;;5016191;28;20033;-80
2022/08/26 12:45:30;;;;;;;5.80;1.52;;;;;;;;;;5031180;28;20050;-78
2022/08/26 12:48:08;;;;;;;6.23;1.00;;;;;;;;;;5026817;28;20353;-77
2022/08/26 12:50:36;;;;;;;7.40;0.98;;;;;;;;;;5014099;28;20146;-77
2022/08/26 12:53:08;;;;;;;6.03;0.77;;;;;;;;;;5014706;28;20053;-77
2022/08/26 12:55:34;;;;;;;;;;;;;;;;;;5031838;28;20520;-78
2022/08/26 12:58:09;;;;;;;7.60;0.82;;;;;;;;;;4999409;28;19996;-78
2022/08/26 13:00:36;;;;;;;6.00;1.00;;;;;;;;;;5030146;28;20040;-80
2022/08/26 13:03:03;;;;;;;6.63;1.30;;;;;;;;;;5031294;28;20080;-78
2022/08/26 13:05:36;;;;;;;3.80;1.02;;;;;;;;;;5031631;28;20079;-81
2022/08/26 13:08:16;;;;;;;7.95;0.63;;;;;;;;;;5042295;28;20029;-77
2022/08/26 13:10:45;;;;;;;7.95;1.20;;;;;;;;;;5030277;28;20168;-78
2022/08/26 13:13:11;;;;;;;6.63;1.15;;;;;;;;;;5039783;28;20532;-79
2022/08/26 13:15:37;;;;;;;5.53;0.70;;;;;;;;;;5016463;28;20140;-77
2022/08/26 13:18:04;;;;;;;3.75;0.88;;;;;;;;;;5032744;28;20036;-78
2022/08/26 13:20:31;;;;;;;4.32;0.95;;;;;;;;;;5032338;28;20029;-78
2022/08/26 13:22:57;;;;;;;5.80;0.75;;;;;;;;;;5013754;28;20325;-78
2022/08/26 13:25:23;;;;;;;7.88;1.02;;;;;;;;;;5024129;28;20072;-80
2022/08/26 13:27:49;;;;;;;4.38;0.90;;;;;;;;;;5032476;28;20061;-78
2022/08/26 13:30:15;;;;;;;5.55;1.10;;;;;;;;;;5049867;28;20435;-77
2022/08/26 13:32:41;;;;;;;5.45;0.93;;;;;;;;;;5039184;28;20108;-77
2022/08/26 13:35:07;;;;;;;7.88;1.48;;;;;;;;;;5043209;28;20037;-77
2022/08/26 13:37:33;;;;;;;8.70;1.05;;;;;;;;;;5025244;28;20043;-77
2022/08/26 13:39:59;;;;;;;6.57;1.20;;;;;;;;;;5061657;28;20033;-77
2022/08/26 13:42:25;;;;;;;13.80;1.17;;;;;;;;;;5051254;28;20029;-78
2022/08/26 13:44:56;;;;;;;5.82;0.80;;;;;;;;;;5051269;28;20036;-78
2022/08/26 13:47:24;;;;;;;10.70;1.20;;;;;;;;;;5049405;28;20499;-76
2022/08/26 13:49:50;;;;;;;5.80;1.40;;;;;;;;;;5031289;28;20091;-79
2022/08/26 13:52:17;;;;;;;7.22;1.45;;;;;;;;;;5053245;28;20036;-77
2022/08/26 13:54:43;;;;;;;8.88;2.65;;;;;;;;;;5061172;28;20901;-76
2022/08/26 13:57:09;;;;;;;15.90;2.65;;;;;;;;;;5039163;28;20037;-76
2022/08/26 13:59:35;;;;;;;10.35;1.35;;;;;;;;;;5043837;28;20090;-77
2022/08/26 14:02:02;;;;;;;10.52;1.17;;;;;;;;;;5048621;28;20041;-77
2022/08/26 14:04:28;;;;;;;5.80;1.45;;;;;;;;;;5047322;28;20104;-76
2022/08/26 14:06:55;;;;;;;12.68;1.08;;;;;;;;;;5050734;28;20032;-81
2022/08/26 14:09:21;;;;;;;8.80;1.60;;;;;;;;;;5045920;28;20044;-80
2022/08/26 14:11:47;;;;;;;7.53;1.00;;;;;;;;;;5048624;28;20033;-76
2022/08/26 14:14:13;;;;;;;7.20;1.33;;;;;;;;;;5040043;28;20037;-76
2022/08/26 14:16:39;;;;;;;13.50;3.65;;;;;;;;;;5039237;28;20075;-78
2022/08/26 14:19:07;;;;;;;11.48;3.22;;;;;;;;;;5043520;28;20026;-76
2022/08/26 14:21:34;;;;;;;6.93;1.27;;;;;;;;;;5046849;28;20119;-75
2022/08/26 14:24:00;;;;;;;6.40;0.80;;;;;;;;;;5052597;28;20028;-75
2022/08/26 14:26:26;;;;;;;5.63;0.88;;;;;;;;;;5049445;28;20021;-76
2022/08/26 14:28:53;;;;;;;5.20;0.90;;;;;;;;;;5048765;28;20381;-76
2022/08/26 14:31:21;;;;;;;5.18;0.93;;;;;;;;;;5040102;28;20021;-80
2022/08/26 14:33:47;;;;;;;6.25;0.82;;;;;;;;;;5013023;28;20084;-76
2022/08/26 14:36:30;;;;;;;8.85;1.20;;;;;;;;;;5018680;28;20481;-76
2022/08/26 14:38:59;;;;;;;8.95;1.55;;;;;;;;;;5030731;28;20117;-76
2022/08/26 14:41:25;;;;;;;6.78;1.05;;;;;;;;;;5024319;28;20042;-77
2022/08/26 14:43:58;;;;;;;14.52;2.00;;;;;;;;;;5004657;28;20037;-76
2022/08/26 14:46:28;;;;;;;3.42;0.73;;;;;;;;;;5024926;28;20025;-76
2022/08/26 14:48:58;;;;;;;10.20;1.65;;;;;;;;;;5027134;28;20044;-75
2022/08/26 14:51:24;;;;;;;6.45;1.25;;;;;;;;;;5029664;28;20477;-75
2022/08/26 14:56:37;;;;;;;6.95;1.05;;;;;;;;;;5032269;28;20109;-78